createdAt,value
2019-03-30T00:02:35.784Z,101497.97
2019-03-30T00:05:11.775Z,101501.83
2019-03-30T00:07:47.861Z,101508.39
2019-03-30T00:10:23.851Z,101506.83
2019-03-30T00:12:59.897Z,101506.45
2019-03-30T00:15:36.709Z,101506.96
2019-03-30T00:18:09.919Z,101506.96
2019-03-30T00:20:44.734Z,101505.31
2019-03-30T00:23:19.704Z,101483.83
2019-03-30T00:25:53.691Z,101503.31
2019-03-30T00:28:28.877Z,101492.83
2019-03-30T00:31:04.754Z,101494.27
2019-03-30T00:33:39.645Z,101482.53
2019-03-30T00:36:14.918Z,101491.61
2019-03-30T00:38:50.871Z,101490.63
2019-03-30T00:41:27.019Z,101483.41
2019-03-30T00:44:03.697Z,101480.02
2019-03-30T00:46:37.981Z,101473.73
2019-03-30T00:49:13.726Z,101474.96
2019-03-30T00:51:47.698Z,101469.96
2019-03-30T00:54:23.751Z,101464.66
2019-03-30T00:56:57.845Z,101465.75
2019-03-30T00:59:34.755Z,101452.40
2019-03-30T01:02:08.706Z,101464.19
2019-03-30T01:04:43.650Z,101452.48
2019-03-30T01:07:19.795Z,101438.82
2019-03-30T01:09:54.703Z,101438.82
2019-03-30T01:12:29.817Z,101452.69
2019-03-30T01:15:05.900Z,101448.91
2019-03-30T01:17:41.799Z,101447.39
2019-03-30T01:21:25.602Z,101449.38
2019-03-30T01:23:58.963Z,101422.11
2019-03-30T01:26:32.409Z,101422.11
2019-03-30T01:29:05.501Z,101441.53
2019-03-30T01:31:39.419Z,101427.83
2019-03-30T01:34:12.840Z,101431.48
2019-03-30T01:36:46.362Z,101425.20
2019-03-30T01:39:19.827Z,101429.52
2019-03-30T01:41:53.516Z,101424.27
2019-03-30T01:44:27.135Z,101419.98
2019-03-30T01:47:00.392Z,101425.97
2019-03-30T01:49:33.559Z,101418.25
2019-03-30T01:52:06.872Z,101422.11
2019-03-30T01:54:40.736Z,101417.69
2019-03-30T01:57:12.738Z,101422.11
2019-03-30T01:59:45.122Z,101424.27
2019-03-30T02:02:18.392Z,101416.13
2019-03-30T02:04:51.887Z,101415.31
2019-03-30T02:07:25.852Z,101416.03
2019-03-30T02:09:59.329Z,101415.91
2019-03-30T02:12:33.002Z,101414.39
2019-03-30T02:15:07.331Z,101411.62
2019-03-30T02:17:40.540Z,101407.97
2019-03-30T02:20:30.878Z,101401.23
2019-03-30T02:23:04.386Z,101404.25
2019-03-30T02:25:37.522Z,101405.47
2019-03-30T02:28:11.324Z,101399.33
2019-03-30T02:30:44.834Z,101397.12
2019-03-30T02:33:18.330Z,101398.17
2019-03-30T02:35:51.846Z,101401.83
2019-03-30T02:38:25.290Z,101401.53
2019-03-30T02:40:58.825Z,101401.70
2019-03-30T02:43:32.412Z,101397.88
2019-03-30T02:46:06.660Z,101396.73
2019-03-30T02:48:40.101Z,101379.17
2019-03-30T02:51:14.638Z,101379.17
2019-03-30T02:53:48.466Z,101387.41
2019-03-30T02:56:22.410Z,101387.41
2019-03-30T02:58:55.860Z,101385.87
2019-03-30T03:01:29.440Z,101387.23
2019-03-30T03:04:02.932Z,101381.81
2019-03-30T03:06:36.508Z,101382.11
2019-03-30T03:09:11.327Z,101366.29
2019-03-30T03:11:44.535Z,101366.29
2019-03-30T03:14:18.077Z,101380.20
2019-03-30T03:16:51.903Z,101380.33
2019-03-30T03:19:25.394Z,101378.20
2019-03-30T03:21:58.846Z,101385.12
2019-03-30T03:24:32.427Z,101383.77
2019-03-30T03:27:05.872Z,101377.56
2019-03-30T03:29:43.377Z,101381.00
2019-03-30T03:32:14.908Z,101371.00
2019-03-30T03:34:48.393Z,101371.00
2019-03-30T03:37:21.893Z,101377.15
2019-03-30T03:39:55.384Z,101369.34
2019-03-30T03:42:29.020Z,101371.77
2019-03-30T03:45:02.874Z,101371.42
2019-03-30T03:47:36.357Z,101364.84
2019-03-30T03:50:11.839Z,101365.40
2019-03-30T03:52:45.343Z,101359.63
2019-03-30T03:55:18.849Z,101357.00
2019-03-30T03:57:52.330Z,101355.34
2019-03-30T04:00:25.456Z,101355.27
2019-03-30T04:02:58.920Z,101359.00
2019-03-30T04:05:32.336Z,101360.99
2019-03-30T04:08:05.887Z,101359.50
2019-03-30T04:10:40.054Z,101356.08
2019-03-30T04:13:15.327Z,101356.37
2019-03-30T04:15:49.864Z,101352.64
2019-03-30T04:18:23.359Z,101351.28
2019-03-30T04:20:56.992Z,101354.20
2019-03-30T04:23:30.376Z,101351.58
2019-03-30T04:26:04.303Z,101341.95
2019-03-30T04:28:37.845Z,101346.49
2019-03-30T04:31:11.334Z,101348.73
2019-03-30T04:33:44.486Z,101342.37
2019-03-30T04:36:17.848Z,101335.80
2019-03-30T04:38:51.322Z,101336.66
2019-03-30T04:41:24.432Z,101335.59
2019-03-30T04:43:57.571Z,101332.28
2019-03-30T04:46:30.947Z,101326.22
2019-03-30T04:49:04.338Z,101326.22
2019-03-30T04:51:37.576Z,101339.92
2019-03-30T04:54:10.876Z,101338.02
2019-03-30T04:56:44.911Z,101338.02
2019-03-30T04:59:18.330Z,101342.42
2019-03-30T05:01:51.883Z,101345.09
2019-03-30T05:04:25.362Z,101343.73
2019-03-30T05:06:58.710Z,101342.89
2019-03-30T05:09:32.065Z,101335.94
2019-03-30T05:12:05.534Z,101339.24
2019-03-30T05:14:39.038Z,101315.58
2019-03-30T05:17:12.374Z,101315.58
2019-03-30T05:19:45.667Z,101326.86
2019-03-30T05:22:19.319Z,101325.08
2019-03-30T05:24:52.416Z,101325.08
2019-03-30T05:27:25.859Z,101324.99
2019-03-30T05:29:59.399Z,101328.08
2019-03-30T05:32:32.901Z,101332.08
2019-03-30T05:35:07.323Z,101329.45
2019-03-30T05:37:40.884Z,101333.81
2019-03-30T05:40:14.497Z,101334.44
2019-03-30T05:42:48.334Z,101331.05
2019-03-30T05:45:21.819Z,101339.28
2019-03-30T05:47:55.364Z,101326.72
2019-03-30T05:50:28.820Z,101331.93
2019-03-30T05:53:02.857Z,101335.58
2019-03-30T05:55:36.393Z,101332.36
2019-03-30T05:58:09.867Z,101335.64
2019-03-30T06:00:43.290Z,101328.13
2019-03-30T06:03:16.520Z,101322.75
2019-03-30T06:05:49.828Z,101327.03
2019-03-30T06:08:23.323Z,101322.84
2019-03-30T06:10:57.344Z,101318.11
2019-03-30T06:13:30.528Z,101323.47
2019-03-30T06:16:03.845Z,101313.94
2019-03-30T06:18:37.593Z,101318.23
2019-03-30T06:21:11.010Z,101317.19
2019-03-30T06:23:44.597Z,101317.19
2019-03-30T06:26:18.477Z,101321.58
2019-03-30T06:28:52.069Z,101315.05
2019-03-30T06:33:53.764Z,101309.50
2019-03-30T06:36:26.346Z,101309.50
2019-03-30T06:38:59.092Z,101304.53
2019-03-30T06:41:32.801Z,101302.17
2019-03-30T06:44:06.293Z,101303.53
2019-03-30T06:46:39.629Z,101295.36
2019-03-30T06:49:13.269Z,101295.55
2019-03-30T06:51:46.095Z,101297.23
2019-03-30T06:54:19.394Z,101298.97
2019-03-30T06:56:52.302Z,101297.09
2019-03-30T06:59:25.290Z,101303.94
2019-03-30T07:01:58.677Z,101306.95
2019-03-30T07:04:30.577Z,101308.14
2019-03-30T07:07:03.718Z,101305.48
2019-03-30T07:09:35.151Z,101305.48
2019-03-30T07:12:07.991Z,101304.49
2019-03-30T07:14:40.868Z,101304.60
2019-03-30T07:17:15.656Z,101298.77
2019-03-30T07:19:49.299Z,101297.23
2019-03-30T07:22:21.904Z,101297.23
2019-03-30T07:24:54.977Z,101299.39
2019-03-30T07:27:27.974Z,101302.22
2019-03-30T07:30:00.992Z,101305.49
2019-03-30T07:32:33.987Z,101302.06
2019-03-30T07:35:07.044Z,101295.39
2019-03-30T07:37:40.297Z,101298.97
2019-03-30T07:40:13.046Z,101300.98
2019-03-30T07:42:45.895Z,101300.41
2019-03-30T07:45:19.144Z,101294.20
2019-03-30T07:47:52.772Z,101298.28
2019-03-30T07:50:24.632Z,101298.67
2019-03-30T07:52:57.397Z,101277.67
2019-03-30T07:55:30.328Z,101277.67
2019-03-30T07:58:03.211Z,101293.48
2019-03-30T08:00:36.310Z,101289.00
2019-03-30T08:03:09.297Z,101291.55
2019-03-30T08:05:43.665Z,101288.67
2019-03-30T08:08:16.890Z,101288.86
2019-03-30T08:10:51.286Z,101288.86
2019-03-30T08:13:24.811Z,101298.02
2019-03-30T08:16:01.878Z,101293.88
2019-03-30T08:18:35.445Z,101292.98
2019-03-30T08:21:08.886Z,101290.41
2019-03-30T08:23:44.069Z,101289.00
2019-03-30T08:26:17.457Z,101283.05
2019-03-30T08:28:50.640Z,101286.92
2019-03-30T08:31:24.508Z,101277.98
2019-03-30T08:34:00.092Z,101277.98
2019-03-30T08:36:33.660Z,101282.19
2019-03-30T08:39:08.294Z,101279.53
2019-03-30T08:41:41.793Z,101279.77
2019-03-30T08:44:16.284Z,101281.52
2019-03-30T08:46:55.642Z,101283.91
2019-03-30T08:49:29.539Z,101273.02
2019-03-30T08:52:03.402Z,101273.02
2019-03-30T08:54:38.365Z,101277.13
2019-03-30T08:57:12.444Z,101276.08
2019-03-30T08:59:51.426Z,101274.02
2019-03-30T09:02:24.834Z,101280.49
2019-03-30T09:04:58.879Z,101271.66
2019-03-30T09:07:33.320Z,101271.29
2019-03-30T09:10:09.106Z,101268.20
2019-03-30T09:12:43.597Z,101262.75
2019-03-30T09:15:17.149Z,101263.61
2019-03-30T09:17:50.525Z,101256.91
2019-03-30T09:20:23.983Z,101252.46
2019-03-30T09:22:57.364Z,101248.02
2019-03-30T09:25:31.032Z,101250.22
2019-03-30T09:28:04.461Z,101248.16
2019-03-30T09:30:37.921Z,101248.31
2019-03-30T09:33:11.539Z,101245.44
2019-03-30T09:35:46.544Z,101238.94
2019-03-30T09:38:20.349Z,101228.19
2019-03-30T09:40:53.915Z,101229.70
2019-03-30T09:43:27.318Z,101227.79
2019-03-30T09:46:00.875Z,101226.05
2019-03-30T09:48:34.594Z,101226.86
2019-03-30T09:51:08.403Z,101222.22
2019-03-30T09:53:42.446Z,101222.22
2019-03-30T09:56:16.353Z,101212.73
2019-03-30T09:58:51.407Z,101218.25
2019-03-30T10:01:24.851Z,101216.71
2019-03-30T10:03:58.864Z,101212.99
2019-03-30T10:06:34.601Z,101208.91
2019-03-30T10:09:09.034Z,101201.19
2019-03-30T10:11:53.744Z,101207.99
2019-03-30T10:14:28.058Z,101204.97
2019-03-30T10:17:01.704Z,101199.59
2019-03-30T10:19:34.261Z,101203.34
2019-03-30T10:22:09.330Z,101197.25
2019-03-30T10:24:43.417Z,101192.14
2019-03-30T10:27:17.362Z,101188.02
2019-03-30T10:29:53.431Z,101187.69
2019-03-30T10:32:27.872Z,101179.19
2019-03-30T10:35:01.709Z,101183.25
2019-03-30T10:37:34.768Z,101176.37
2019-03-30T10:40:09.407Z,101174.72
2019-03-30T10:42:43.503Z,101176.73
2019-03-30T10:45:18.493Z,101171.66
2019-03-30T10:47:52.517Z,101169.98
2019-03-30T10:50:27.352Z,101161.80
2019-03-30T10:53:02.113Z,101165.87
2019-03-30T10:55:35.403Z,101161.09
2019-03-30T10:58:10.498Z,101150.36
2019-03-30T11:00:45.081Z,101147.48
2019-03-30T11:03:20.441Z,101152.92
2019-03-30T11:05:54.825Z,101147.78
2019-03-30T11:08:30.112Z,101146.09
2019-03-30T11:11:05.333Z,101144.06
2019-03-30T11:13:39.694Z,101143.39
2019-03-30T11:16:14.474Z,101131.32
2019-03-30T11:18:53.442Z,101132.32
2019-03-30T11:21:27.492Z,101130.45
2019-03-30T11:24:06.391Z,101129.75
2019-03-30T11:26:37.111Z,101120.41
2019-03-30T11:29:11.307Z,101120.07
2019-03-30T11:31:44.721Z,101119.02
2019-03-30T11:34:21.694Z,101109.81
2019-03-30T11:36:53.966Z,101119.20
2019-03-30T11:39:27.469Z,101115.95
2019-03-30T11:42:00.881Z,101109.81
2019-03-30T11:44:34.333Z,101105.73
2019-03-30T11:47:07.807Z,101104.20
2019-03-30T11:49:41.548Z,101096.72
2019-03-30T11:52:15.100Z,101090.94
2019-03-30T11:54:48.446Z,101091.13
2019-03-30T11:57:21.615Z,101085.85
2019-03-30T11:59:55.394Z,101062.34
2019-03-30T12:02:29.015Z,101062.34
2019-03-30T12:05:02.921Z,101076.32
2019-03-30T12:07:36.557Z,101077.17
2019-03-30T12:10:11.003Z,101068.97
2019-03-30T12:12:44.881Z,101060.14
2019-03-30T12:15:18.860Z,101059.27
2019-03-30T12:17:53.077Z,101049.42
2019-03-30T12:20:26.841Z,101048.73
2019-03-30T12:23:01.254Z,101047.36
2019-03-30T12:25:36.094Z,101045.18
2019-03-30T12:28:09.867Z,101040.74
2019-03-30T12:30:43.420Z,101033.06
2019-03-30T12:33:16.931Z,101021.15
2019-03-30T12:35:50.398Z,101014.34
2019-03-30T12:38:23.923Z,101012.67
2019-03-30T12:40:57.419Z,101018.78
2019-03-30T12:43:30.689Z,101023.57
2019-03-30T12:46:04.420Z,100998.88
2019-03-30T12:48:37.887Z,100998.88
2019-03-30T12:51:11.722Z,101008.59
2019-03-30T12:53:50.159Z,101001.77
2019-03-30T12:56:17.917Z,101003.45
2019-03-30T12:58:51.405Z,100995.28
2019-03-30T13:01:24.576Z,100985.59
2019-03-30T13:03:58.097Z,100986.97
2019-03-30T13:06:31.520Z,100986.97
2019-03-30T13:09:06.556Z,100981.19
2019-03-30T13:11:40.089Z,100970.78
2019-03-30T13:14:13.362Z,100971.83
2019-03-30T13:16:47.014Z,100976.23
2019-03-30T13:19:20.581Z,100975.23
2019-03-30T13:21:53.926Z,100953.95
2019-03-30T13:24:27.481Z,100953.95
2019-03-30T13:27:00.947Z,100960.04
2019-03-30T13:29:34.483Z,100953.20
2019-03-30T13:32:08.372Z,100945.47
2019-03-30T13:34:41.828Z,100945.47
2019-03-30T13:37:20.953Z,100948.84
2019-03-30T13:39:54.513Z,100950.17
2019-03-30T13:42:27.903Z,100937.57
2019-03-30T13:45:03.481Z,100934.20
2019-03-30T13:47:36.880Z,100935.84
2019-03-30T13:50:10.374Z,100929.71
2019-03-30T13:52:43.800Z,100921.72
2019-03-30T13:55:17.355Z,100920.48
2019-03-30T13:57:51.469Z,100924.44
2019-03-30T14:00:26.227Z,100922.20
2019-03-30T14:02:59.979Z,100920.73
2019-03-30T14:05:33.481Z,100907.77
2019-03-30T14:08:07.329Z,100914.31
2019-03-30T14:10:40.853Z,100912.78
2019-03-30T14:13:14.382Z,100906.33
2019-03-30T14:15:47.495Z,100908.53
2019-03-30T14:18:21.090Z,100908.01
2019-03-30T14:20:54.798Z,100895.06
2019-03-30T14:23:28.373Z,100894.94
2019-03-30T14:26:01.846Z,100889.64
2019-03-30T14:28:35.435Z,100888.31
2019-03-30T14:31:09.068Z,100881.14
2019-03-30T14:33:42.311Z,100881.82
2019-03-30T14:36:15.475Z,100876.73
2019-03-30T14:38:49.285Z,100873.00
2019-03-30T14:41:23.335Z,100865.50
2019-03-30T14:43:56.877Z,100864.45
2019-03-30T14:46:31.379Z,100865.50
2019-03-30T14:49:04.822Z,100857.33
2019-03-30T14:51:38.327Z,100858.36
2019-03-30T14:54:11.928Z,100848.66
2019-03-30T14:56:46.376Z,100851.38
2019-03-30T14:59:19.863Z,100852.55
2019-03-30T15:01:53.421Z,100844.73
2019-03-30T15:04:26.829Z,100834.84
2019-03-30T15:07:00.332Z,100841.48
2019-03-30T15:09:33.838Z,100839.64
2019-03-30T15:12:07.439Z,100836.39
2019-03-30T15:14:40.842Z,100834.38
2019-03-30T15:17:14.891Z,100833.70
2019-03-30T15:19:48.338Z,100829.39
2019-03-30T15:22:21.609Z,100833.91
2019-03-30T15:24:55.107Z,100830.19
2019-03-30T15:27:28.469Z,100830.19
2019-03-30T15:30:01.821Z,100824.84
2019-03-30T15:32:36.388Z,100825.05
2019-03-30T15:35:10.387Z,100822.69
2019-03-30T15:37:43.867Z,100828.30
2019-03-30T15:40:17.313Z,100824.94
2019-03-30T15:42:50.852Z,100823.58
2019-03-30T15:45:35.576Z,100817.08
2019-03-30T15:48:08.879Z,100818.42
2019-03-30T15:50:41.694Z,100814.23
2019-03-30T15:53:13.735Z,100811.31
2019-03-30T15:59:23.281Z,100799.50
2019-03-30T16:01:59.613Z,100803.97
2019-03-30T16:07:21.671Z,100787.03
2019-03-30T16:09:55.832Z,100792.64
2019-03-30T16:12:29.481Z,100792.64
2019-03-30T16:15:02.886Z,100798.10
2019-03-30T16:17:36.865Z,100791.84
2019-03-30T16:20:10.388Z,100789.12
2019-03-30T16:22:44.089Z,100788.44
2019-03-30T16:25:17.365Z,100780.59
2019-03-30T16:27:50.302Z,100780.63
2019-03-30T16:30:23.315Z,100786.77
2019-03-30T16:32:56.069Z,100787.40
2019-03-30T16:35:28.874Z,100776.28
2019-03-30T16:38:01.785Z,100779.90
2019-03-30T16:40:34.774Z,100773.76
2019-03-30T16:43:08.537Z,100771.34
2019-03-30T16:45:41.744Z,100768.94
2019-03-30T16:48:14.874Z,100765.83
2019-03-30T16:50:48.034Z,100767.83
2019-03-30T16:53:20.885Z,100763.37
2019-03-30T16:55:53.817Z,100760.70
2019-03-30T16:58:26.745Z,100762.05
2019-03-30T17:00:59.741Z,100756.66
2019-03-30T17:03:31.440Z,100759.39
2019-03-30T17:06:04.030Z,100758.39
2019-03-30T17:08:36.881Z,100757.56
2019-03-30T17:11:09.840Z,100754.52
2019-03-30T17:13:42.840Z,100753.67
2019-03-30T17:16:15.782Z,100754.00
2019-03-30T17:18:48.822Z,100752.11
2019-03-30T17:21:21.774Z,100744.88
2019-03-30T17:23:55.297Z,100748.06
2019-03-30T17:26:28.053Z,100752.09
2019-03-30T17:29:00.998Z,100748.83
2019-03-30T17:31:33.841Z,100748.30
2019-03-30T17:34:06.787Z,100754.78
2019-03-30T17:36:39.871Z,100748.28
2019-03-30T17:39:14.302Z,100752.09
2019-03-30T17:41:47.061Z,100746.36
2019-03-30T17:44:20.344Z,100750.64
2019-03-30T17:46:53.059Z,100747.06
2019-03-30T17:49:25.985Z,100748.96
2019-03-30T17:51:58.929Z,100744.92
2019-03-30T17:54:31.866Z,100751.73
2019-03-30T17:57:04.822Z,100745.77
2019-03-30T17:59:37.797Z,100744.39
2019-03-30T18:02:10.755Z,100741.34
2019-03-30T18:04:42.494Z,100741.20
2019-03-30T18:07:15.067Z,100738.47
2019-03-30T18:09:48.314Z,100740.52
2019-03-30T18:12:21.029Z,100740.16
2019-03-30T18:14:53.879Z,100746.34
2019-03-30T18:17:26.818Z,100751.59
2019-03-30T18:19:59.808Z,100746.98
2019-03-30T18:22:32.735Z,100747.33
2019-03-30T18:25:05.982Z,100750.91
2019-03-30T18:27:38.846Z,100745.13
2019-03-30T18:30:12.841Z,100749.23
2019-03-30T18:32:45.840Z,100746.55
2019-03-30T18:35:18.722Z,100755.77
2019-03-30T18:37:50.593Z,100745.19
2019-03-30T18:40:34.305Z,100755.31
2019-03-30T18:43:07.350Z,100755.31
2019-03-30T18:45:40.268Z,100752.10
2019-03-30T18:48:16.765Z,100754.16
2019-03-30T18:50:48.605Z,100750.95
2019-03-30T18:53:21.791Z,100755.05
2019-03-30T18:55:53.605Z,100755.05
2019-03-30T18:58:25.668Z,100761.02
2019-03-30T19:00:58.377Z,100760.48
2019-03-30T19:03:31.010Z,100760.48
2019-03-30T19:06:05.091Z,100762.00
2019-03-30T19:08:37.817Z,100761.48
2019-03-30T19:11:10.787Z,100760.49
2019-03-30T19:13:43.812Z,100757.94
2019-03-30T19:16:16.808Z,100759.81
2019-03-30T19:18:50.047Z,100759.98
2019-03-30T19:21:23.049Z,100758.33
2019-03-30T19:23:55.990Z,100755.01
2019-03-30T19:26:29.296Z,100755.85
2019-03-30T19:29:02.016Z,100762.54
2019-03-30T19:31:34.885Z,100755.19
2019-03-30T19:34:07.821Z,100755.48
2019-03-30T19:36:40.891Z,100751.53
2019-03-30T19:39:13.875Z,100750.11
2019-03-30T19:41:46.838Z,100750.22
2019-03-30T19:44:20.057Z,100749.84
2019-03-30T19:46:52.973Z,100750.84
2019-03-30T19:49:25.993Z,100749.31
2019-03-30T19:51:58.890Z,100748.80
2019-03-30T19:54:31.961Z,100750.84
2019-03-30T19:57:04.881Z,100746.65
2019-03-30T19:59:38.004Z,100748.02
2019-03-30T20:04:47.453Z,100745.62
2019-03-30T20:07:21.453Z,100747.50
2019-03-30T20:09:54.860Z,100749.54
2019-03-30T20:12:28.495Z,100746.34
2019-03-30T20:15:02.355Z,100751.28
2019-03-30T20:17:35.920Z,100751.28
2019-03-30T20:20:11.595Z,100757.45
2019-03-30T20:22:45.117Z,100750.48
2019-03-30T20:25:18.530Z,100750.48
2019-03-30T20:27:52.132Z,100743.88
2019-03-30T20:30:25.519Z,100748.66
2019-03-30T20:32:58.867Z,100743.57
2019-03-30T20:35:32.447Z,100743.25
2019-03-30T20:38:05.852Z,100747.70
2019-03-30T20:40:39.549Z,100741.93
2019-03-30T20:43:12.893Z,100741.94
2019-03-30T20:45:46.293Z,100738.37
2019-03-30T20:48:19.855Z,100741.27
2019-03-30T20:50:53.397Z,100741.98
2019-03-30T20:53:26.845Z,100736.21
2019-03-30T20:56:00.344Z,100736.25
2019-03-30T20:58:33.883Z,100740.17
2019-03-30T21:01:07.677Z,100737.96
2019-03-30T21:03:39.691Z,100733.58
2019-03-30T21:06:11.802Z,100734.61
2019-03-30T21:08:45.342Z,100729.49
2019-03-30T21:11:20.133Z,100735.97
2019-03-30T21:13:56.651Z,100739.00
2019-03-30T21:16:28.463Z,100736.73
2019-03-30T21:19:02.328Z,100733.48
2019-03-30T21:21:35.864Z,100733.17
2019-03-30T21:24:09.521Z,100732.00
2019-03-30T21:26:43.390Z,100729.80
2019-03-30T21:29:17.329Z,100730.99
2019-03-30T21:31:50.923Z,100723.70
2019-03-30T21:34:24.639Z,100723.53
2019-03-30T21:36:58.414Z,100719.26
2019-03-30T21:39:31.864Z,100719.26
2019-03-30T21:42:08.222Z,100728.45
2019-03-30T21:44:41.864Z,100740.73
2019-03-30T21:47:15.394Z,100761.48
2019-03-30T21:49:48.854Z,100768.31
2019-03-30T21:52:22.471Z,100775.11
2019-03-30T21:54:57.956Z,100775.95
2019-03-30T21:57:31.416Z,100778.88
2019-03-30T22:00:10.565Z,100772.73
2019-03-30T22:02:40.350Z,100763.04
2019-03-30T22:05:13.851Z,100763.04
2019-03-30T22:07:47.871Z,100771.72
2019-03-30T22:10:30.896Z,100765.25
2019-03-30T22:13:06.519Z,100763.55
2019-03-30T22:15:40.340Z,100764.56
2019-03-30T22:18:14.306Z,100766.95
2019-03-30T22:20:47.888Z,100766.45
2019-03-30T22:23:22.333Z,100769.70
2019-03-30T22:25:55.890Z,100769.70
2019-03-30T22:28:29.368Z,100766.45
2019-03-30T22:31:03.003Z,100767.30
2019-03-30T22:33:35.997Z,100771.56
2019-03-30T22:36:09.078Z,100765.77
2019-03-30T22:38:42.064Z,100764.09
2019-03-30T22:41:35.439Z,100768.00
2019-03-30T22:44:08.440Z,100768.67
2019-03-30T22:46:41.080Z,100764.75
2019-03-30T22:49:14.442Z,100770.70
2019-03-30T22:51:47.542Z,100767.82
2019-03-30T22:54:25.880Z,100763.21
2019-03-30T22:56:58.898Z,100763.21
2019-03-30T22:59:31.986Z,100768.34
2019-03-30T23:02:05.004Z,100764.77
2019-03-30T23:04:38.378Z,100768.98
2019-03-30T23:07:11.013Z,100768.46
2019-03-30T23:09:44.009Z,100765.25
2019-03-30T23:12:17.326Z,100769.00
2019-03-30T23:14:50.138Z,100766.78
2019-03-30T23:17:23.304Z,100767.30
2019-03-30T23:19:56.879Z,100764.91
2019-03-30T23:22:30.467Z,100756.74
2019-03-30T23:25:03.783Z,100756.74
2019-03-30T23:27:36.744Z,100764.22
2019-03-30T23:30:08.793Z,100755.57
2019-03-30T23:32:41.768Z,100757.61
2019-03-30T23:35:13.494Z,100755.40
2019-03-30T23:37:46.351Z,100757.25
2019-03-30T23:40:19.067Z,100756.75
2019-03-30T23:42:52.071Z,100750.81
2019-03-30T23:45:25.013Z,100757.94
2019-03-30T23:47:57.861Z,100751.14
2019-03-30T23:50:30.779Z,100761.52
2019-03-30T23:53:02.493Z,100759.64
2019-03-30T23:55:35.781Z,100758.80
2019-03-30T23:58:07.716Z,100762.00
